sensor_id;sensor_type;location;lat;lon;timestamp;P1;durP1;ratioP1;P2;durP2;ratioP2
41885;SDS011;27567;43.084;25.616;2023-04-06T09:59:26;10.90;;;4.65;;
41885;SDS011;27567;43.084;25.616;2023-04-06T10:08:09;8.43;;;4.30;;
41885;SDS011;27567;43.084;25.616;2023-04-06T10:10:55;8.82;;;4.03;;
41885;SDS011;27567;43.084;25.616;2023-04-06T10:13:39;6.80;;;4.43;;
41885;SDS011;27567;43.084;25.616;2023-04-06T10:16:23;9.05;;;4.50;;
41885;SDS011;27567;43.084;25.616;2023-04-06T10:19:25;9.77;;;4.80;;
41885;SDS011;27567;43.084;25.616;2023-04-06T10:22:12;8.80;;;4.55;;
41885;SDS011;27567;43.084;25.616;2023-04-06T10:27:46;8.05;;;4.90;;
41885;SDS011;27567;43.084;25.616;2023-04-06T10:30:30;8.82;;;4.10;;
41885;SDS011;27567;43.084;25.616;2023-04-06T10:33:19;7.95;;;4.55;;
41885;SDS011;27567;43.084;25.616;2023-04-06T10:36:13;6.32;;;4.32;;
41885;SDS011;27567;43.084;25.616;2023-04-06T10:39:02;7.25;;;4.57;;
41885;SDS011;27567;43.084;25.616;2023-04-06T10:41:48;7.65;;;4.20;;
41885;SDS011;27567;43.084;25.616;2023-04-06T10:44:32;8.68;;;4.68;;
41885;SDS011;27567;43.084;25.616;2023-04-06T10:47:26;7.38;;;4.85;;
41885;SDS011;27567;43.084;25.616;2023-04-06T10:50:11;8.60;;;4.35;;
41885;SDS011;27567;43.084;25.616;2023-04-06T10:53:00;14.52;;;5.43;;
41885;SDS011;27567;43.084;25.616;2023-04-06T10:55:45;6.10;;;4.00;;
41885;SDS011;27567;43.084;25.616;2023-04-06T10:58:32;10.52;;;4.88;;
41885;SDS011;27567;43.084;25.616;2023-04-06T11:01:17;9.20;;;3.83;;
41885;SDS011;27567;43.084;25.616;2023-04-06T11:04:02;7.75;;;4.22;;
41885;SDS011;27567;43.084;25.616;2023-04-06T11:06:50;8.85;;;4.20;;
41885;SDS011;27567;43.084;25.616;2023-04-06T11:09:34;7.65;;;4.38;;
41885;SDS011;27567;43.084;25.616;2023-04-06T11:12:20;6.47;;;4.07;;
41885;SDS011;27567;43.084;25.616;2023-04-06T11:15:09;7.43;;;4.63;;
41885;SDS011;27567;43.084;25.616;2023-04-06T11:17:53;8.75;;;4.63;;
41885;SDS011;27567;43.084;25.616;2023-04-06T11:20:37;7.22;;;4.07;;
41885;SDS011;27567;43.084;25.616;2023-04-06T11:23:22;7.80;;;4.13;;
41885;SDS011;27567;43.084;25.616;2023-04-06T11:26:12;7.53;;;3.80;;
41885;SDS011;27567;43.084;25.616;2023-04-06T11:28:57;6.25;;;4.53;;
41885;SDS011;27567;43.084;25.616;2023-04-06T11:31:45;7.35;;;3.80;;
41885;SDS011;27567;43.084;25.616;2023-04-06T11:34:35;5.50;;;3.88;;
41885;SDS011;27567;43.084;25.616;2023-04-06T11:37:20;10.93;;;4.20;;
41885;SDS011;27567;43.084;25.616;2023-04-06T11:40:07;6.93;;;4.22;;
41885;SDS011;27567;43.084;25.616;2023-04-06T11:42:52;7.93;;;4.93;;
41885;SDS011;27567;43.084;25.616;2023-04-06T11:45:41;7.60;;;4.40;;
41885;SDS011;27567;43.084;25.616;2023-04-06T11:48:26;8.15;;;3.97;;
41885;SDS011;27567;43.084;25.616;2023-04-06T11:51:10;7.05;;;4.68;;
41885;SDS011;27567;43.084;25.616;2023-04-06T11:53:54;9.93;;;4.50;;
41885;SDS011;27567;43.084;25.616;2023-04-06T11:56:39;11.38;;;4.38;;
41885;SDS011;27567;43.084;25.616;2023-04-06T11:59:23;7.93;;;4.60;;
41885;SDS011;27567;43.084;25.616;2023-04-06T12:02:07;5.95;;;3.60;;
41885;SDS011;27567;43.084;25.616;2023-04-06T12:04:51;6.40;;;3.92;;
41885;SDS011;27567;43.084;25.616;2023-04-06T12:07:35;5.88;;;3.58;;
41885;SDS011;27567;43.084;25.616;2023-04-06T12:10:19;9.82;;;3.88;;
41885;SDS011;27567;43.084;25.616;2023-04-06T12:13:04;7.03;;;3.97;;
41885;SDS011;27567;43.084;25.616;2023-04-06T12:15:48;6.00;;;3.90;;
41885;SDS011;27567;43.084;25.616;2023-04-06T12:18:33;6.80;;;4.45;;
41885;SDS011;27567;43.084;25.616;2023-04-06T12:21:17;8.07;;;4.40;;
41885;SDS011;27567;43.084;25.616;2023-04-06T12:24:01;7.15;;;4.00;;
41885;SDS011;27567;43.084;25.616;2023-04-06T12:26:45;6.22;;;3.83;;
41885;SDS011;27567;43.084;25.616;2023-04-06T12:29:29;6.55;;;3.85;;
41885;SDS011;27567;43.084;25.616;2023-04-06T12:32:14;7.38;;;4.00;;
41885;SDS011;27567;43.084;25.616;2023-04-06T12:34:59;6.60;;;4.03;;
41885;SDS011;27567;43.084;25.616;2023-04-06T12:37:43;6.53;;;4.18;;
41885;SDS011;27567;43.084;25.616;2023-04-06T12:40:28;5.22;;;3.92;;
41885;SDS011;27567;43.084;25.616;2023-04-06T12:43:12;6.63;;;4.38;;
41885;SDS011;27567;43.084;25.616;2023-04-06T12:45:56;7.00;;;4.38;;
41885;SDS011;27567;43.084;25.616;2023-04-06T12:48:40;8.43;;;5.03;;
41885;SDS011;27567;43.084;25.616;2023-04-06T12:51:27;7.82;;;4.18;;
41885;SDS011;27567;43.084;25.616;2023-04-06T12:54:11;6.80;;;4.18;;
41885;SDS011;27567;43.084;25.616;2023-04-06T12:56:55;9.00;;;4.22;;
41885;SDS011;27567;43.084;25.616;2023-04-06T12:59:42;9.65;;;4.90;;
41885;SDS011;27567;43.084;25.616;2023-04-06T13:02:28;10.65;;;4.70;;
41885;SDS011;27567;43.084;25.616;2023-04-06T13:05:13;8.52;;;4.55;;
41885;SDS011;27567;43.084;25.616;2023-04-06T13:08:01;8.52;;;4.50;;
41885;SDS011;27567;43.084;25.616;2023-04-06T13:10:49;6.40;;;3.90;;
41885;SDS011;27567;43.084;25.616;2023-04-06T13:13:36;9.40;;;4.25;;
41885;SDS011;27567;43.084;25.616;2023-04-06T13:16:21;8.35;;;4.50;;
41885;SDS011;27567;43.084;25.616;2023-04-06T13:19:05;9.18;;;3.67;;
41885;SDS011;27567;43.084;25.616;2023-04-06T13:21:48;6.93;;;3.80;;
41885;SDS011;27567;43.084;25.616;2023-04-06T13:24:32;5.38;;;3.72;;
41885;SDS011;27567;43.084;25.616;2023-04-06T13:27:17;10.07;;;3.63;;
41885;SDS011;27567;43.084;25.616;2023-04-06T13:30:03;7.18;;;3.47;;
41885;SDS011;27567;43.084;25.616;2023-04-06T13:32:47;6.38;;;3.22;;
41885;SDS011;27567;43.084;25.616;2023-04-06T13:35:31;8.20;;;3.25;;
41885;SDS011;27567;43.084;25.616;2023-04-06T13:38:16;5.80;;;2.90;;
41885;SDS011;27567;43.084;25.616;2023-04-06T13:41:00;5.82;;;3.25;;
41885;SDS011;27567;43.084;25.616;2023-04-06T13:43:44;14.98;;;3.80;;
41885;SDS011;27567;43.084;25.616;2023-04-06T13:46:28;5.63;;;3.00;;
41885;SDS011;27567;43.084;25.616;2023-04-06T13:49:12;5.97;;;2.80;;
41885;SDS011;27567;43.084;25.616;2023-04-06T13:51:57;5.03;;;3.00;;
41885;SDS011;27567;43.084;25.616;2023-04-06T13:54:41;9.55;;;3.38;;
41885;SDS011;27567;43.084;25.616;2023-04-06T13:57:24;5.03;;;3.22;;
41885;SDS011;27567;43.084;25.616;2023-04-06T14:00:08;4.68;;;2.97;;
41885;SDS011;27567;43.084;25.616;2023-04-06T14:02:55;4.40;;;3.10;;
41885;SDS011;27567;43.084;25.616;2023-04-06T14:05:39;6.10;;;3.65;;
41885;SDS011;27567;43.084;25.616;2023-04-06T14:08:23;8.90;;;3.45;;
41885;SDS011;27567;43.084;25.616;2023-04-06T14:11:10;4.80;;;3.13;;
41885;SDS011;27567;43.084;25.616;2023-04-06T14:13:56;6.20;;;2.40;;
41885;SDS011;27567;43.084;25.616;2023-04-06T14:16:40;3.03;;;2.45;;
41885;SDS011;27567;43.084;25.616;2023-04-06T14:19:24;6.88;;;3.10;;
41885;SDS011;27567;43.084;25.616;2023-04-06T14:22:08;5.97;;;2.90;;
41885;SDS011;27567;43.084;25.616;2023-04-06T14:24:52;6.38;;;3.55;;
41885;SDS011;27567;43.084;25.616;2023-04-06T14:27:36;4.78;;;3.13;;
41885;SDS011;27567;43.084;25.616;2023-04-06T14:30:21;4.88;;;3.25;;
41885;SDS011;27567;43.084;25.616;2023-04-06T14:33:05;4.72;;;2.97;;
41885;SDS011;27567;43.084;25.616;2023-04-06T14:35:49;4.75;;;3.20;;
41885;SDS011;27567;43.084;25.616;2023-04-06T14:38:34;6.00;;;3.08;;
41885;SDS011;27567;43.084;25.616;2023-04-06T14:41:19;5.03;;;3.28;;
41885;SDS011;27567;43.084;25.616;2023-04-06T14:44:05;4.13;;;3.05;;
41885;SDS011;27567;43.084;25.616;2023-04-06T14:46:49;6.95;;;3.20;;
41885;SDS011;27567;43.084;25.616;2023-04-06T14:49:33;7.68;;;2.90;;
41885;SDS011;27567;43.084;25.616;2023-04-06T14:52:18;5.20;;;3.22;;
41885;SDS011;27567;43.084;25.616;2023-04-06T14:55:02;4.15;;;3.05;;
41885;SDS011;27567;43.084;25.616;2023-04-06T14:57:48;4.32;;;2.45;;
41885;SDS011;27567;43.084;25.616;2023-04-06T15:00:33;4.45;;;2.90;;
41885;SDS011;27567;43.084;25.616;2023-04-06T15:03:17;8.73;;;3.15;;
41885;SDS011;27567;43.084;25.616;2023-04-06T15:06:00;4.40;;;2.92;;
41885;SDS011;27567;43.084;25.616;2023-04-06T15:08:44;9.93;;;3.80;;
41885;SDS011;27567;43.084;25.616;2023-04-06T15:11:29;6.80;;;3.47;;
41885;SDS011;27567;43.084;25.616;2023-04-06T15:14:13;6.38;;;3.65;;
41885;SDS011;27567;43.084;25.616;2023-04-06T15:16:57;5.07;;;3.20;;
41885;SDS011;27567;43.084;25.616;2023-04-06T15:19:41;6.43;;;3.42;;
41885;SDS011;27567;43.084;25.616;2023-04-06T15:22:25;7.47;;;3.10;;
41885;SDS011;27567;43.084;25.616;2023-04-06T15:25:13;4.72;;;2.92;;
41885;SDS011;27567;43.084;25.616;2023-04-06T15:27:57;5.30;;;3.33;;
41885;SDS011;27567;43.084;25.616;2023-04-06T15:30:41;5.05;;;3.08;;
41885;SDS011;27567;43.084;25.616;2023-04-06T15:33:25;6.72;;;3.38;;
41885;SDS011;27567;43.084;25.616;2023-04-06T15:36:31;6.15;;;3.22;;
41885;SDS011;27567;43.084;25.616;2023-04-06T15:39:14;4.22;;;2.90;;
41885;SDS011;27567;43.084;25.616;2023-04-06T15:41:58;5.85;;;2.85;;
41885;SDS011;27567;43.084;25.616;2023-04-06T15:51:08;4.22;;;3.00;;
41885;SDS011;27567;43.084;25.616;2023-04-06T15:53:52;5.03;;;3.10;;
41885;SDS011;27567;43.084;25.616;2023-04-06T15:56:36;7.78;;;3.15;;
41885;SDS011;27567;43.084;25.616;2023-04-06T15:59:20;8.57;;;3.38;;
41885;SDS011;27567;43.084;25.616;2023-04-06T16:02:04;7.00;;;4.13;;
41885;SDS011;27567;43.084;25.616;2023-04-06T16:04:51;6.00;;;3.58;;
41885;SDS011;27567;43.084;25.616;2023-04-06T16:07:40;4.65;;;2.65;;
41885;SDS011;27567;43.084;25.616;2023-04-06T16:10:25;6.20;;;3.42;;
41885;SDS011;27567;43.084;25.616;2023-04-06T16:13:09;4.43;;;2.55;;
41885;SDS011;27567;43.084;25.616;2023-04-06T16:15:54;5.65;;;4.18;;
41885;SDS011;27567;43.084;25.616;2023-04-06T16:18:38;8.70;;;3.75;;
41885;SDS011;27567;43.084;25.616;2023-04-06T16:21:23;4.65;;;2.58;;
41885;SDS011;27567;43.084;25.616;2023-04-06T16:24:07;7.32;;;3.67;;
41885;SDS011;27567;43.084;25.616;2023-04-06T16:26:51;5.32;;;2.95;;
41885;SDS011;27567;43.084;25.616;2023-04-06T16:29:35;6.95;;;3.00;;
41885;SDS011;27567;43.084;25.616;2023-04-06T16:32:19;6.55;;;3.45;;
41885;SDS011;27567;43.084;25.616;2023-04-06T16:35:03;7.18;;;3.00;;
41885;SDS011;27567;43.084;25.616;2023-04-06T16:37:48;4.82;;;3.03;;
41885;SDS011;27567;43.084;25.616;2023-04-06T16:40:32;10.85;;;2.88;;
41885;SDS011;27567;43.084;25.616;2023-04-06T16:43:17;6.13;;;4.00;;
41885;SDS011;27567;43.084;25.616;2023-04-06T16:46:01;5.40;;;3.47;;
41885;SDS011;27567;43.084;25.616;2023-04-06T16:48:45;4.32;;;2.92;;
41885;SDS011;27567;43.084;25.616;2023-04-06T16:51:29;6.70;;;3.47;;
41885;SDS011;27567;43.084;25.616;2023-04-06T16:54:16;6.80;;;3.45;;
41885;SDS011;27567;43.084;25.616;2023-04-06T16:57:00;6.50;;;3.47;;
41885;SDS011;27567;43.084;25.616;2023-04-06T16:59:45;6.63;;;3.92;;
41885;SDS011;27567;43.084;25.616;2023-04-06T17:02:29;4.07;;;3.10;;
41885;SDS011;27567;43.084;25.616;2023-04-06T17:05:14;9.95;;;4.10;;
41885;SDS011;27567;43.084;25.616;2023-04-06T17:08:03;8.23;;;4.38;;
41885;SDS011;27567;43.084;25.616;2023-04-06T17:10:47;7.07;;;3.85;;
41885;SDS011;27567;43.084;25.616;2023-04-06T17:13:31;7.72;;;4.00;;
41885;SDS011;27567;43.084;25.616;2023-04-06T17:16:15;7.55;;;4.55;;
41885;SDS011;27567;43.084;25.616;2023-04-06T17:19:00;8.38;;;4.18;;
41885;SDS011;27567;43.084;25.616;2023-04-06T17:21:44;7.20;;;4.50;;
41885;SDS011;27567;43.084;25.616;2023-04-06T17:24:28;9.18;;;4.90;;
41885;SDS011;27567;43.084;25.616;2023-04-06T17:27:12;7.32;;;4.97;;
41885;SDS011;27567;43.084;25.616;2023-04-06T17:29:56;8.88;;;5.15;;
41885;SDS011;27567;43.084;25.616;2023-04-06T17:32:42;10.57;;;5.28;;
41885;SDS011;27567;43.084;25.616;2023-04-06T17:35:27;8.93;;;4.47;;
41885;SDS011;27567;43.084;25.616;2023-04-06T17:38:11;9.60;;;5.00;;
41885;SDS011;27567;43.084;25.616;2023-04-06T17:40:55;7.18;;;5.00;;
41885;SDS011;27567;43.084;25.616;2023-04-06T17:43:40;12.00;;;5.35;;
41885;SDS011;27567;43.084;25.616;2023-04-06T17:46:24;10.20;;;5.55;;
41885;SDS011;27567;43.084;25.616;2023-04-06T17:49:09;8.18;;;5.03;;
41885;SDS011;27567;43.084;25.616;2023-04-06T17:51:55;11.35;;;5.68;;
41885;SDS011;27567;43.084;25.616;2023-04-06T17:54:39;7.63;;;4.45;;
41885;SDS011;27567;43.084;25.616;2023-04-06T17:57:24;10.80;;;5.80;;
41885;SDS011;27567;43.084;25.616;2023-04-06T18:00:09;9.30;;;5.10;;
41885;SDS011;27567;43.084;25.616;2023-04-06T18:02:54;8.90;;;4.93;;
41885;SDS011;27567;43.084;25.616;2023-04-06T18:05:39;7.80;;;4.68;;
41885;SDS011;27567;43.084;25.616;2023-04-06T18:08:24;8.90;;;5.45;;
41885;SDS011;27567;43.084;25.616;2023-04-06T18:11:15;9.02;;;5.35;;
41885;SDS011;27567;43.084;25.616;2023-04-06T18:14:04;8.20;;;5.03;;
41885;SDS011;27567;43.084;25.616;2023-04-06T18:16:52;7.18;;;5.18;;
41885;SDS011;27567;43.084;25.616;2023-04-06T18:19:36;8.82;;;4.90;;
41885;SDS011;27567;43.084;25.616;2023-04-06T18:22:20;10.45;;;5.30;;
41885;SDS011;27567;43.084;25.616;2023-04-06T18:25:04;10.00;;;5.28;;
41885;SDS011;27567;43.084;25.616;2023-04-06T18:27:50;9.43;;;5.35;;
41885;SDS011;27567;43.084;25.616;2023-04-06T18:30:34;8.40;;;5.10;;
41885;SDS011;27567;43.084;25.616;2023-04-06T18:33:19;8.13;;;4.97;;
41885;SDS011;27567;43.084;25.616;2023-04-06T18:36:02;13.70;;;5.32;;
41885;SDS011;27567;43.084;25.616;2023-04-06T18:38:47;10.10;;;5.53;;
41885;SDS011;27567;43.084;25.616;2023-04-06T18:41:31;7.28;;;4.75;;
41885;SDS011;27567;43.084;25.616;2023-04-06T18:44:15;13.10;;;5.47;;
41885;SDS011;27567;43.084;25.616;2023-04-06T18:46:59;9.63;;;5.10;;
41885;SDS011;27567;43.084;25.616;2023-04-06T18:49:44;10.35;;;5.68;;
41885;SDS011;27567;43.084;25.616;2023-04-06T18:52:28;8.23;;;5.28;;
41885;SDS011;27567;43.084;25.616;2023-04-06T18:55:12;8.23;;;5.10;;
41885;SDS011;27567;43.084;25.616;2023-04-06T18:57:57;12.93;;;5.60;;
41885;SDS011;27567;43.084;25.616;2023-04-06T19:00:40;9.70;;;5.15;;
41885;SDS011;27567;43.084;25.616;2023-04-06T19:03:25;8.25;;;5.53;;
41885;SDS011;27567;43.084;25.616;2023-04-06T19:06:10;8.98;;;5.65;;
41885;SDS011;27567;43.084;25.616;2023-04-06T19:08:54;7.28;;;5.05;;
41885;SDS011;27567;43.084;25.616;2023-04-06T19:11:38;9.35;;;5.57;;
41885;SDS011;27567;43.084;25.616;2023-04-06T19:14:22;10.70;;;5.22;;
41885;SDS011;27567;43.084;25.616;2023-04-06T19:17:06;9.30;;;5.38;;
41885;SDS011;27567;43.084;25.616;2023-04-06T19:19:50;11.63;;;6.00;;
41885;SDS011;27567;43.084;25.616;2023-04-06T19:22:35;8.52;;;4.53;;
41885;SDS011;27567;43.084;25.616;2023-04-06T19:25:19;9.73;;;5.13;;
41885;SDS011;27567;43.084;25.616;2023-04-06T19:28:03;9.07;;;5.13;;
41885;SDS011;27567;43.084;25.616;2023-04-06T19:30:48;9.35;;;4.97;;
41885;SDS011;27567;43.084;25.616;2023-04-06T19:33:34;9.38;;;4.53;;
41885;SDS011;27567;43.084;25.616;2023-04-06T19:36:19;7.18;;;4.75;;
41885;SDS011;27567;43.084;25.616;2023-04-06T19:39:04;7.22;;;4.72;;
41885;SDS011;27567;43.084;25.616;2023-04-06T19:41:49;10.73;;;5.45;;
41885;SDS011;27567;43.084;25.616;2023-04-06T19:44:32;8.50;;;4.47;;
41885;SDS011;27567;43.084;25.616;2023-04-06T19:47:17;7.38;;;4.57;;
41885;SDS011;27567;43.084;25.616;2023-04-06T19:50:02;8.93;;;4.78;;
41885;SDS011;27567;43.084;25.616;2023-04-06T19:52:48;6.97;;;4.85;;
41885;SDS011;27567;43.084;25.616;2023-04-06T19:55:32;7.43;;;5.07;;
41885;SDS011;27567;43.084;25.616;2023-04-06T19:58:19;12.07;;;5.63;;
41885;SDS011;27567;43.084;25.616;2023-04-06T20:01:04;11.20;;;5.35;;
41885;SDS011;27567;43.084;25.616;2023-04-06T20:03:49;8.25;;;5.47;;
41885;SDS011;27567;43.084;25.616;2023-04-06T20:06:33;10.07;;;5.90;;
41885;SDS011;27567;43.084;25.616;2023-04-06T20:09:17;11.73;;;5.85;;
41885;SDS011;27567;43.084;25.616;2023-04-06T20:12:01;11.75;;;5.53;;
41885;SDS011;27567;43.084;25.616;2023-04-06T20:14:46;12.00;;;6.30;;
41885;SDS011;27567;43.084;25.616;2023-04-06T20:17:30;10.15;;;5.60;;
41885;SDS011;27567;43.084;25.616;2023-04-06T20:20:17;11.02;;;6.20;;
41885;SDS011;27567;43.084;25.616;2023-04-06T20:23:01;13.40;;;6.50;;
41885;SDS011;27567;43.084;25.616;2023-04-06T20:25:45;9.35;;;5.88;;
41885;SDS011;27567;43.084;25.616;2023-04-06T20:28:29;10.43;;;6.22;;
41885;SDS011;27567;43.084;25.616;2023-04-06T20:31:14;11.82;;;6.40;;
41885;SDS011;27567;43.084;25.616;2023-04-06T20:33:58;11.60;;;6.00;;
41885;SDS011;27567;43.084;25.616;2023-04-06T20:36:42;10.23;;;6.15;;
41885;SDS011;27567;43.084;25.616;2023-04-06T20:39:26;14.00;;;6.15;;
41885;SDS011;27567;43.084;25.616;2023-04-06T20:42:10;14.40;;;5.97;;
41885;SDS011;27567;43.084;25.616;2023-04-06T20:44:55;11.10;;;5.80;;
41885;SDS011;27567;43.084;25.616;2023-04-06T20:47:39;9.27;;;6.18;;
41885;SDS011;27567;43.084;25.616;2023-04-06T20:50:26;9.55;;;6.05;;
41885;SDS011;27567;43.084;25.616;2023-04-06T20:53:17;11.60;;;5.50;;
41885;SDS011;27567;43.084;25.616;2023-04-06T20:56:01;10.63;;;5.70;;
41885;SDS011;27567;43.084;25.616;2023-04-06T20:58:46;8.23;;;5.32;;
41885;SDS011;27567;43.084;25.616;2023-04-06T21:01:30;11.40;;;6.22;;
41885;SDS011;27567;43.084;25.616;2023-04-06T21:04:14;8.63;;;5.32;;
41885;SDS011;27567;43.084;25.616;2023-04-06T21:06:58;9.10;;;6.05;;
41885;SDS011;27567;43.084;25.616;2023-04-06T21:09:42;11.68;;;5.00;;
41885;SDS011;27567;43.084;25.616;2023-04-06T21:12:25;10.30;;;5.07;;
41885;SDS011;27567;43.084;25.616;2023-04-06T21:15:10;10.45;;;5.55;;
41885;SDS011;27567;43.084;25.616;2023-04-06T21:17:54;10.57;;;5.43;;
41885;SDS011;27567;43.084;25.616;2023-04-06T21:20:39;12.70;;;6.55;;
41885;SDS011;27567;43.084;25.616;2023-04-06T21:23:22;8.30;;;5.50;;
41885;SDS011;27567;43.084;25.616;2023-04-06T21:26:06;9.90;;;6.38;;
41885;SDS011;27567;43.084;25.616;2023-04-06T21:28:51;14.80;;;6.45;;
41885;SDS011;27567;43.084;25.616;2023-04-06T21:31:35;9.23;;;5.63;;
41885;SDS011;27567;43.084;25.616;2023-04-06T21:34:25;10.80;;;5.53;;
41885;SDS011;27567;43.084;25.616;2023-04-06T21:37:09;9.40;;;5.75;;
41885;SDS011;27567;43.084;25.616;2023-04-06T21:39:53;15.82;;;5.90;;
41885;SDS011;27567;43.084;25.616;2023-04-06T21:42:40;11.23;;;5.45;;
41885;SDS011;27567;43.084;25.616;2023-04-06T21:45:24;11.57;;;5.55;;
41885;SDS011;27567;43.084;25.616;2023-04-06T21:48:08;8.85;;;5.47;;
41885;SDS011;27567;43.084;25.616;2023-04-06T21:50:52;10.88;;;5.53;;
41885;SDS011;27567;43.084;25.616;2023-04-06T21:53:36;7.60;;;5.05;;
41885;SDS011;27567;43.084;25.616;2023-04-06T21:56:21;11.20;;;5.80;;
41885;SDS011;27567;43.084;25.616;2023-04-06T21:59:06;10.13;;;5.97;;
41885;SDS011;27567;43.084;25.616;2023-04-06T22:01:50;11.27;;;5.55;;
41885;SDS011;27567;43.084;25.616;2023-04-06T22:04:34;10.40;;;5.50;;
41885;SDS011;27567;43.084;25.616;2023-04-06T22:07:18;9.95;;;6.25;;
41885;SDS011;27567;43.084;25.616;2023-04-06T22:10:02;11.32;;;6.53;;
41885;SDS011;27567;43.084;25.616;2023-04-06T22:12:47;13.70;;;5.93;;
41885;SDS011;27567;43.084;25.616;2023-04-06T22:15:37;12.02;;;5.38;;
41885;SDS011;27567;43.084;25.616;2023-04-06T22:18:21;11.32;;;6.68;;
41885;SDS011;27567;43.084;25.616;2023-04-06T22:21:05;10.35;;;6.35;;
41885;SDS011;27567;43.084;25.616;2023-04-06T22:23:51;9.00;;;5.88;;
41885;SDS011;27567;43.084;25.616;2023-04-06T22:26:35;9.10;;;5.30;;
41885;SDS011;27567;43.084;25.616;2023-04-06T22:29:19;11.80;;;6.32;;
41885;SDS011;27567;43.084;25.616;2023-04-06T22:32:03;9.95;;;6.10;;
41885;SDS011;27567;43.084;25.616;2023-04-06T22:34:48;12.60;;;5.95;;
41885;SDS011;27567;43.084;25.616;2023-04-06T22:37:31;8.65;;;5.97;;
41885;SDS011;27567;43.084;25.616;2023-04-06T22:40:16;13.05;;;6.25;;
41885;SDS011;27567;43.084;25.616;2023-04-06T22:43:00;11.70;;;5.22;;
41885;SDS011;27567;43.084;25.616;2023-04-06T22:45:44;9.40;;;6.22;;
41885;SDS011;27567;43.084;25.616;2023-04-06T22:48:28;9.35;;;6.00;;
41885;SDS011;27567;43.084;25.616;2023-04-06T22:51:12;10.15;;;6.15;;
41885;SDS011;27567;43.084;25.616;2023-04-06T22:53:56;9.95;;;6.53;;
41885;SDS011;27567;43.084;25.616;2023-04-06T22:56:40;11.13;;;6.50;;
41885;SDS011;27567;43.084;25.616;2023-04-06T22:59:24;9.65;;;5.35;;
41885;SDS011;27567;43.084;25.616;2023-04-06T23:02:08;10.85;;;6.95;;
41885;SDS011;27567;43.084;25.616;2023-04-06T23:04:55;15.25;;;7.03;;
41885;SDS011;27567;43.084;25.616;2023-04-06T23:07:39;16.23;;;6.88;;
41885;SDS011;27567;43.084;25.616;2023-04-06T23:10:23;11.63;;;6.80;;
41885;SDS011;27567;43.084;25.616;2023-04-06T23:13:07;11.57;;;6.47;;
41885;SDS011;27567;43.084;25.616;2023-04-06T23:15:51;11.82;;;7.63;;
41885;SDS011;27567;43.084;25.616;2023-04-06T23:18:35;9.25;;;6.22;;
41885;SDS011;27567;43.084;25.616;2023-04-06T23:21:19;12.45;;;6.65;;
41885;SDS011;27567;43.084;25.616;2023-04-06T23:24:03;18.33;;;6.68;;
41885;SDS011;27567;43.084;25.616;2023-04-06T23:26:47;9.77;;;6.30;;
41885;SDS011;27567;43.084;25.616;2023-04-06T23:29:31;12.43;;;6.90;;
41885;SDS011;27567;43.084;25.616;2023-04-06T23:32:15;10.35;;;6.32;;
41885;SDS011;27567;43.084;25.616;2023-04-06T23:34:59;9.25;;;6.05;;
41885;SDS011;27567;43.084;25.616;2023-04-06T23:37:43;14.32;;;6.75;;
41885;SDS011;27567;43.084;25.616;2023-04-06T23:40:35;10.93;;;5.88;;
41885;SDS011;27567;43.084;25.616;2023-04-06T23:43:20;9.32;;;6.43;;
41885;SDS011;27567;43.084;25.616;2023-04-06T23:46:04;12.75;;;6.63;;
41885;SDS011;27567;43.084;25.616;2023-04-06T23:48:48;9.35;;;6.10;;
41885;SDS011;27567;43.084;25.616;2023-04-06T23:51:32;11.55;;;6.78;;
41885;SDS011;27567;43.084;25.616;2023-04-06T23:54:16;11.48;;;6.93;;
41885;SDS011;27567;43.084;25.616;2023-04-06T23:57:00;11.48;;;6.75;;
41885;SDS011;27567;43.084;25.616;2023-04-06T23:59:44;10.13;;;6.32;;
